createdAt,value
2019-02-20T00:00:30.431Z,24.67
2019-02-20T00:03:04.289Z,21.13
2019-02-20T00:05:37.908Z,26.00
2019-02-20T00:08:11.584Z,22.73
2019-02-20T00:10:45.550Z,31.57
2019-02-20T00:13:19.137Z,29.60
2019-02-20T00:15:52.899Z,26.40
2019-02-20T00:18:26.601Z,26.83
2019-02-20T00:21:12.758Z,23.07
2019-02-20T00:23:46.362Z,14.20
2019-02-20T00:26:29.247Z,24.67
2019-02-20T00:29:02.923Z,21.83
2019-02-20T00:31:36.516Z,16.60
2019-02-20T00:34:14.136Z,19.17
2019-02-20T00:36:47.725Z,18.47
2019-02-20T00:39:28.562Z,22.67
2019-02-20T00:42:02.151Z,16.47
2019-02-20T00:44:40.785Z,15.23
2019-02-20T00:47:16.018Z,20.63
2019-02-20T00:49:49.716Z,17.77
2019-02-20T00:52:27.951Z,20.20
2019-02-20T00:55:01.581Z,26.40
2019-02-20T00:57:35.266Z,17.70
2019-02-20T01:00:16.371Z,26.27
2019-02-20T01:02:49.959Z,19.67
2019-02-20T01:05:23.567Z,16.43
2019-02-20T01:07:57.309Z,18.23
2019-02-20T01:10:30.925Z,17.73
2019-02-20T01:13:07.646Z,23.83
2019-02-20T01:15:41.334Z,18.87
2019-02-20T01:18:17.967Z,20.53
2019-02-20T01:20:51.581Z,20.37
2019-02-20T01:23:43.347Z,23.90
2019-02-20T01:26:16.956Z,18.03
2019-02-20T01:28:56.635Z,21.23
2019-02-20T01:31:30.293Z,16.90
2019-02-20T01:34:03.961Z,21.83
2019-02-20T01:36:37.639Z,24.30
2019-02-20T01:39:11.337Z,21.57
2019-02-20T01:41:44.956Z,17.57
2019-02-20T01:44:18.556Z,27.23
2019-02-20T01:46:55.975Z,24.97
2019-02-20T01:49:29.587Z,19.27
2019-02-20T01:52:03.262Z,16.50
2019-02-20T01:54:40.024Z,14.77
2019-02-20T01:57:19.616Z,20.93
2019-02-20T01:59:53.272Z,16.07
2019-02-20T02:02:27.916Z,19.27
2019-02-20T02:05:20.873Z,14.43
2019-02-20T02:07:54.832Z,21.20
2019-02-20T02:10:28.456Z,11.90
2019-02-20T02:13:05.419Z,12.80
2019-02-20T02:15:39.053Z,14.43
2019-02-20T02:18:12.632Z,10.60
2019-02-20T02:20:47.091Z,14.13
2019-02-20T02:23:20.755Z,17.33
2019-02-20T02:25:57.422Z,8.43
2019-02-20T02:28:31.040Z,16.93
2019-02-20T02:31:04.801Z,13.90
2019-02-20T02:33:38.419Z,14.67
2019-02-20T02:36:12.111Z,14.97
2019-02-20T02:38:45.720Z,13.90
2019-02-20T02:41:19.328Z,20.17
2019-02-20T02:43:52.963Z,18.97
2019-02-20T02:46:26.573Z,19.07
2019-02-20T02:49:03.344Z,9.80
2019-02-20T02:51:37.053Z,16.17
2019-02-20T02:54:10.623Z,19.50
2019-02-20T02:56:44.284Z,9.73
2019-02-20T02:59:30.298Z,19.63
2019-02-20T03:02:04.442Z,14.53
2019-02-20T03:04:38.118Z,13.93
2019-02-20T03:07:14.683Z,23.20
2019-02-20T03:09:48.294Z,14.27
2019-02-20T03:12:21.920Z,13.40
2019-02-20T03:14:55.580Z,14.57
2019-02-20T03:17:29.274Z,17.87
2019-02-20T03:20:03.019Z,19.37
2019-02-20T03:22:36.645Z,24.97
2019-02-20T03:25:10.373Z,20.37
2019-02-20T03:27:43.995Z,15.67
2019-02-20T03:30:22.298Z,20.47
2019-02-20T03:32:55.925Z,19.77
2019-02-20T03:35:29.534Z,27.90
2019-02-20T03:38:03.152Z,22.13
2019-02-20T03:40:36.794Z,21.43
2019-02-20T03:43:10.545Z,21.23
2019-02-20T03:45:44.275Z,19.37
2019-02-20T03:48:17.905Z,26.70
2019-02-20T03:50:51.791Z,27.20
2019-02-20T03:53:28.465Z,20.03
2019-02-20T03:56:02.570Z,28.63
2019-02-20T03:58:36.223Z,27.40
2019-02-20T04:01:18.758Z,28.60
2019-02-20T04:03:52.377Z,23.17
2019-02-20T04:06:26.067Z,22.40
2019-02-20T04:09:00.127Z,20.00
2019-02-20T04:11:40.186Z,23.70
2019-02-20T04:14:13.775Z,31.80
2019-02-20T04:16:47.454Z,23.10
2019-02-20T04:19:21.076Z,25.03
2019-02-20T04:21:54.665Z,22.73
2019-02-20T04:24:28.303Z,22.77
2019-02-20T04:27:04.921Z,29.77
2019-02-20T04:29:38.582Z,25.23
2019-02-20T04:32:24.840Z,33.27
2019-02-20T04:34:58.522Z,28.07
2019-02-20T04:37:32.180Z,25.77
2019-02-20T04:40:06.772Z,30.53
2019-02-20T04:42:40.393Z,24.63
2019-02-20T04:45:14.023Z,24.53
2019-02-20T04:47:47.599Z,30.90
2019-02-20T04:50:21.227Z,32.30
2019-02-20T04:52:54.878Z,32.63
2019-02-20T04:55:28.636Z,28.00
2019-02-20T04:58:19.632Z,34.13
2019-02-20T05:00:53.282Z,35.37
2019-02-20T05:03:26.906Z,32.00
2019-02-20T05:06:00.532Z,28.90
2019-02-20T05:08:34.391Z,30.57
2019-02-20T05:11:08.035Z,21.40
2019-02-20T05:13:45.108Z,25.03
2019-02-20T05:16:18.815Z,25.93
2019-02-20T05:18:57.566Z,23.00
2019-02-20T05:21:31.199Z,29.13
2019-02-20T05:24:11.688Z,28.13
2019-02-20T05:26:45.295Z,32.40
2019-02-20T05:29:22.038Z,27.17
2019-02-20T05:31:55.727Z,27.37
2019-02-20T05:34:36.001Z,25.73
2019-02-20T05:37:09.656Z,35.70
2019-02-20T05:39:47.437Z,32.17
2019-02-20T05:42:21.102Z,22.50
2019-02-20T05:44:58.597Z,26.93
2019-02-20T05:47:32.187Z,24.77
2019-02-20T05:50:13.062Z,30.53
2019-02-20T05:52:46.763Z,29.43
2019-02-20T05:55:20.470Z,29.87
2019-02-20T05:58:00.103Z,33.90
2019-02-20T06:00:33.728Z,28.23
2019-02-20T06:03:11.855Z,29.43
2019-02-20T06:05:45.563Z,30.97
2019-02-20T06:08:19.138Z,25.17
2019-02-20T06:10:52.824Z,26.33
2019-02-20T06:13:30.121Z,28.83
2019-02-20T06:16:03.814Z,33.73
2019-02-20T06:18:37.425Z,27.40
2019-02-20T06:21:11.055Z,27.17
2019-02-20T06:23:50.240Z,32.87
2019-02-20T06:26:23.874Z,32.10
2019-02-20T06:29:00.677Z,27.27
2019-02-20T06:31:34.362Z,34.93
2019-02-20T06:34:20.005Z,27.47
2019-02-20T06:36:53.628Z,32.60
2019-02-20T06:39:27.223Z,34.67
2019-02-20T06:42:00.900Z,24.67
2019-02-20T06:44:34.657Z,25.30
2019-02-20T06:47:08.279Z,26.47
2019-02-20T06:49:41.931Z,32.13
2019-02-20T06:52:15.596Z,23.63
2019-02-20T06:54:53.865Z,32.57
2019-02-20T06:57:26.475Z,33.43
2019-02-20T07:00:00.158Z,30.27
2019-02-20T07:02:35.758Z,33.57
2019-02-20T07:05:30.564Z,28.47
2019-02-20T07:08:19.184Z,25.17
2019-02-20T07:11:16.867Z,34.93
2019-02-20T07:14:19.435Z,24.70
2019-02-20T07:17:02.372Z,29.73
2019-02-20T07:19:47.875Z,25.97
2019-02-20T07:22:27.804Z,25.77
2019-02-20T07:25:22.551Z,31.07
2019-02-20T07:28:18.718Z,27.03
2019-02-20T07:30:52.349Z,27.30
2019-02-20T07:33:26.899Z,25.20
2019-02-20T07:36:00.515Z,30.47
2019-02-20T07:38:41.258Z,27.27
2019-02-20T07:41:14.880Z,32.30
2019-02-20T07:43:48.550Z,26.07
2019-02-20T07:46:23.132Z,25.37
2019-02-20T07:48:56.746Z,27.67
2019-02-20T07:51:48.531Z,21.93
2019-02-20T07:54:22.208Z,23.03
2019-02-20T07:56:58.794Z,30.53
2019-02-20T07:59:32.491Z,31.03
2019-02-20T08:02:06.250Z,27.43
2019-02-20T08:04:39.879Z,27.60
2019-02-20T08:07:15.522Z,25.20
2019-02-20T08:09:49.208Z,27.17
2019-02-20T08:12:22.891Z,28.17
2019-02-20T08:14:56.591Z,27.40
2019-02-20T08:17:30.535Z,24.60
2019-02-20T08:20:05.498Z,28.27
2019-02-20T08:22:51.183Z,25.47
2019-02-20T08:25:24.879Z,29.00
2019-02-20T08:27:58.568Z,29.87
2019-02-20T08:30:32.146Z,23.27
2019-02-20T08:33:05.844Z,29.27
2019-02-20T08:35:51.555Z,31.23
2019-02-20T08:38:25.247Z,26.33
2019-02-20T08:40:58.830Z,26.83
2019-02-20T08:43:32.444Z,27.23
2019-02-20T08:46:06.105Z,29.07
2019-02-20T08:49:00.122Z,27.63
2019-02-20T08:51:33.791Z,21.23
2019-02-20T08:54:07.427Z,27.50
2019-02-20T08:56:41.021Z,24.10
2019-02-20T08:59:14.640Z,25.37
2019-02-20T09:01:51.907Z,22.37
2019-02-20T09:04:25.594Z,26.60
2019-02-20T09:06:59.219Z,20.40
2019-02-20T09:09:44.844Z,26.73
2019-02-20T09:12:18.443Z,20.87
2019-02-20T09:14:52.092Z,25.40
2019-02-20T09:17:26.252Z,27.75
2019-02-20T09:20:00.817Z,22.50
2019-02-20T09:22:35.043Z,21.95
2019-02-20T09:25:19.428Z,20.05
2019-02-20T09:27:59.918Z,18.02
2019-02-20T09:30:34.096Z,24.95
2019-02-20T09:33:21.451Z,15.83
2019-02-20T09:35:55.797Z,22.25
2019-02-20T09:38:30.039Z,20.43
2019-02-20T09:41:04.286Z,21.12
2019-02-20T09:43:42.999Z,25.35
2019-02-20T09:46:17.250Z,22.17
2019-02-20T09:48:51.463Z,24.52
2019-02-20T09:51:25.820Z,24.57
2019-02-20T09:54:00.036Z,26.07
2019-02-20T09:56:34.256Z,22.05
2019-02-20T09:59:11.422Z,29.63
2019-02-20T10:01:45.716Z,22.50
2019-02-20T10:04:22.900Z,27.05
2019-02-20T10:06:57.094Z,29.57
2019-02-20T10:09:40.433Z,30.02
2019-02-20T10:12:14.698Z,25.12
2019-02-20T10:14:49.215Z,26.52
2019-02-20T10:17:23.496Z,28.75
2019-02-20T10:19:57.721Z,30.27
2019-02-20T10:22:32.009Z,26.57
2019-02-20T10:25:08.517Z,27.37
2019-02-20T10:27:42.792Z,24.72
2019-02-20T10:30:19.984Z,23.55
2019-02-20T10:32:54.203Z,25.48
2019-02-20T10:35:31.117Z,25.95
2019-02-20T10:38:05.421Z,25.45
2019-02-20T10:40:39.648Z,24.77
2019-02-20T10:43:13.898Z,27.15
2019-02-20T10:45:48.118Z,24.18
2019-02-20T10:48:22.381Z,24.45
2019-02-20T10:50:56.603Z,33.78
2019-02-20T10:53:30.189Z,24.07
2019-02-20T10:56:11.054Z,26.12
2019-02-20T10:58:45.337Z,24.10
2019-02-20T11:01:19.601Z,25.15
2019-02-20T11:03:53.803Z,29.23
2019-02-20T11:06:28.047Z,27.30
2019-02-20T11:09:05.571Z,23.70
2019-02-20T11:11:39.756Z,27.07
2019-02-20T11:14:13.992Z,24.82
2019-02-20T11:16:48.185Z,22.70
2019-02-20T11:19:31.752Z,23.42
2019-02-20T11:22:06.277Z,22.45
2019-02-20T11:24:47.962Z,21.35
2019-02-20T11:27:22.483Z,22.35
2019-02-20T11:29:56.803Z,18.02
2019-02-20T11:32:30.988Z,23.98
2019-02-20T11:35:08.839Z,24.23
2019-02-20T11:37:43.156Z,22.35
2019-02-20T11:40:17.493Z,19.15
2019-02-20T11:42:51.679Z,24.98
2019-02-20T11:45:26.294Z,22.75
2019-02-20T11:48:00.623Z,23.55
2019-02-20T11:50:35.048Z,25.92
2019-02-20T11:53:12.355Z,21.10
2019-02-20T11:55:46.576Z,23.62
2019-02-20T11:58:20.764Z,23.42
2019-02-20T12:00:55.132Z,26.80
2019-02-20T12:03:29.317Z,22.80
2019-02-20T12:06:03.588Z,27.32
2019-02-20T12:08:37.895Z,27.27
2019-02-20T12:11:12.161Z,23.30
2019-02-20T12:13:46.307Z,24.80
2019-02-20T12:16:32.727Z,28.15
2019-02-20T12:19:06.958Z,26.35
2019-02-20T12:21:41.258Z,22.98
2019-02-20T12:24:15.569Z,26.15
2019-02-20T12:26:49.353Z,27.27
2019-02-20T12:29:22.987Z,30.73
2019-02-20T12:31:56.732Z,26.67
2019-02-20T12:34:30.748Z,27.67
2019-02-20T12:37:04.507Z,30.17
2019-02-20T12:39:38.131Z,28.93
2019-02-20T12:42:13.658Z,30.80
2019-02-20T12:44:47.343Z,28.17
2019-02-20T12:47:21.019Z,26.87
2019-02-20T12:49:55.044Z,35.10
2019-02-20T12:52:31.643Z,29.93
2019-02-20T12:55:07.031Z,28.03
2019-02-20T12:57:40.638Z,29.23
2019-02-20T13:00:18.471Z,32.70
2019-02-20T13:02:52.122Z,27.87
2019-02-20T13:05:25.885Z,26.03
2019-02-20T13:07:59.545Z,27.23
2019-02-20T13:10:39.569Z,29.13
2019-02-20T13:13:13.241Z,29.00
2019-02-20T13:15:55.220Z,36.03
2019-02-20T13:18:28.832Z,30.27
2019-02-20T13:21:08.465Z,31.53
2019-02-20T13:23:42.083Z,32.80
2019-02-20T13:26:31.038Z,32.30
2019-02-20T13:29:04.735Z,33.37
2019-02-20T13:31:42.225Z,31.60
2019-02-20T13:34:15.844Z,34.13
2019-02-20T13:36:49.710Z,28.10
2019-02-20T13:39:23.300Z,35.80
2019-02-20T13:42:01.181Z,29.67
2019-02-20T13:44:34.828Z,31.00
2019-02-20T13:47:12.349Z,31.87
2019-02-20T13:49:46.080Z,36.30
2019-02-20T13:52:19.714Z,32.40
2019-02-20T13:54:58.022Z,34.87
2019-02-20T13:57:31.727Z,29.57
2019-02-20T14:00:08.812Z,32.50
2019-02-20T14:02:42.683Z,36.67
2019-02-20T14:05:16.278Z,39.73
2019-02-20T14:07:59.607Z,26.73
2019-02-20T14:10:33.355Z,34.90
2019-02-20T14:13:08.444Z,33.37
2019-02-20T14:15:42.098Z,27.40
2019-02-20T14:18:15.723Z,37.23
2019-02-20T14:20:49.389Z,32.93
2019-02-20T14:23:23.045Z,34.80
2019-02-20T14:26:05.469Z,37.90
2019-02-20T14:28:39.100Z,33.97
2019-02-20T14:34:17.564Z,31.17
2019-02-20T14:36:51.232Z,32.27
2019-02-20T14:39:30.077Z,32.03
2019-02-20T14:42:04.083Z,33.07
2019-02-20T14:44:42.860Z,28.37
2019-02-20T14:47:16.451Z,30.47
2019-02-20T14:50:11.661Z,39.03
2019-02-20T14:52:45.549Z,32.43
2019-02-20T14:55:23.711Z,32.20
2019-02-20T14:57:57.301Z,31.83
2019-02-20T15:00:34.471Z,29.73
2019-02-20T15:03:08.604Z,36.43
2019-02-20T15:05:43.329Z,26.93
2019-02-20T15:08:16.920Z,27.47
2019-02-20T15:11:02.702Z,32.97
2019-02-20T15:13:36.391Z,34.63
2019-02-20T15:16:22.048Z,30.93
2019-02-20T15:18:55.715Z,29.90
2019-02-20T15:21:31.643Z,33.17
2019-02-20T15:24:05.399Z,32.63
2019-02-20T15:26:39.031Z,33.47
2019-02-20T15:29:12.692Z,37.87
2019-02-20T15:31:51.983Z,36.13
2019-02-20T15:34:25.641Z,31.70
2019-02-20T15:36:59.327Z,39.50
2019-02-20T15:39:33.016Z,34.17
2019-02-20T15:42:06.745Z,29.47
2019-02-20T15:44:43.519Z,32.77
2019-02-20T15:47:17.116Z,35.13
2019-02-20T15:49:56.927Z,31.00
2019-02-20T15:52:30.584Z,34.50
2019-02-20T15:55:11.226Z,35.97
2019-02-20T15:57:44.456Z,36.30
2019-02-20T16:00:38.401Z,33.80
2019-02-20T16:03:12.085Z,31.80
2019-02-20T16:05:45.843Z,34.30
2019-02-20T16:08:19.533Z,29.27
2019-02-20T16:10:53.150Z,35.03
2019-02-20T16:13:27.231Z,34.43
2019-02-20T16:16:00.906Z,34.53
2019-02-20T16:18:38.455Z,30.50
2019-02-20T16:21:12.205Z,30.73
2019-02-20T16:23:46.217Z,37.67
2019-02-20T16:26:19.872Z,35.30
2019-02-20T16:28:53.523Z,33.23
2019-02-20T16:31:39.242Z,31.17
2019-02-20T16:34:12.861Z,32.60
2019-02-20T16:36:46.464Z,36.07
2019-02-20T16:39:20.171Z,34.20
2019-02-20T16:41:53.844Z,32.93
2019-02-20T16:44:28.740Z,31.57
2019-02-20T16:47:02.397Z,35.20
2019-02-20T16:49:43.194Z,37.77
2019-02-20T16:52:16.837Z,32.57
2019-02-20T16:54:50.468Z,33.30
2019-02-20T16:57:24.058Z,40.07
2019-02-20T16:59:58.702Z,34.87
2019-02-20T17:02:33.275Z,33.57
2019-02-20T17:05:13.451Z,36.90
2019-02-20T17:07:48.829Z,38.03
2019-02-20T17:10:22.618Z,32.50
2019-02-20T17:12:57.210Z,38.90
2019-02-20T17:15:31.010Z,36.07
2019-02-20T17:18:17.719Z,34.73
2019-02-20T17:20:51.467Z,35.67
2019-02-20T17:23:34.773Z,28.37
2019-02-20T17:26:08.495Z,37.80
2019-02-20T17:28:42.220Z,30.20
2019-02-20T17:31:15.818Z,32.20
2019-02-20T17:34:26.079Z,32.50
2019-02-20T17:36:59.764Z,37.47
2019-02-20T17:39:36.737Z,37.03
2019-02-20T17:42:10.455Z,36.63
2019-02-20T17:44:47.466Z,36.27
2019-02-20T17:47:21.062Z,33.67
2019-02-20T17:49:58.416Z,34.17
2019-02-20T17:52:32.086Z,30.13
2019-02-20T17:55:28.491Z,34.30
2019-02-20T17:58:02.223Z,32.50
2019-02-20T18:00:38.385Z,34.57
2019-02-20T18:03:25.720Z,32.47
2019-02-20T18:05:59.359Z,33.90
2019-02-20T18:08:42.209Z,36.63
2019-02-20T18:11:15.839Z,30.87
2019-02-20T18:14:01.427Z,36.60
2019-02-20T18:16:35.197Z,35.30
2019-02-20T18:19:08.833Z,33.00
2019-02-20T18:21:42.465Z,32.83
2019-02-20T18:24:29.405Z,34.00
2019-02-20T18:27:03.173Z,36.23
2019-02-20T18:29:37.054Z,35.17
2019-02-20T18:32:10.822Z,33.13
2019-02-20T18:34:46.822Z,33.83
2019-02-20T18:37:22.346Z,34.63
2019-02-20T18:40:00.878Z,35.17
2019-02-20T18:42:36.228Z,35.60
2019-02-20T18:45:13.650Z,37.30
2019-02-20T18:47:47.300Z,33.47
2019-02-20T18:50:20.861Z,39.77
2019-02-20T18:52:59.204Z,47.67
2019-02-20T18:55:32.874Z,46.93
2019-02-20T18:58:06.624Z,43.57
2019-02-20T19:00:41.607Z,44.47
2019-02-20T19:03:15.257Z,50.10
2019-02-20T19:05:49.105Z,44.67
2019-02-20T19:08:43.302Z,51.57
2019-02-20T19:11:55.251Z,46.67
2019-02-20T19:14:48.335Z,57.27
2019-02-20T19:17:27.566Z,53.37
2019-02-20T19:20:04.268Z,52.40
2019-02-20T19:22:55.534Z,54.27
2019-02-20T19:25:59.589Z,52.63
2019-02-20T19:28:55.907Z,59.10
2019-02-20T19:31:47.710Z,60.23
2019-02-20T19:34:39.999Z,66.47
2019-02-20T19:41:00.254Z,60.73
2019-02-20T19:43:37.242Z,66.47
2019-02-20T19:46:36.634Z,65.13
2019-02-20T19:52:50.995Z,60.70
2019-02-20T19:56:10.126Z,70.53
2019-02-20T19:58:59.032Z,71.87
2019-02-20T20:01:58.266Z,65.50
2019-02-20T20:05:09.647Z,76.23
2019-02-20T20:07:49.636Z,64.80
2019-02-20T20:10:32.394Z,71.47
2019-02-20T20:13:24.531Z,79.23
2019-02-20T20:16:25.505Z,71.63
2019-02-20T20:19:18.689Z,75.37
2019-02-20T20:22:04.351Z,70.27
2019-02-20T20:24:43.946Z,79.27
2019-02-20T20:27:32.680Z,78.07
2019-02-20T20:33:29.887Z,78.37
2019-02-20T20:36:09.783Z,85.70
2019-02-20T20:39:05.913Z,79.27
2019-02-20T20:41:51.565Z,85.23
2019-02-20T20:44:34.415Z,75.63
2019-02-20T20:47:19.687Z,82.37
2019-02-20T20:50:13.246Z,82.23
2019-02-20T20:53:01.851Z,77.00
2019-02-20T20:56:06.306Z,84.23
2019-02-20T20:58:48.972Z,81.80
2019-02-20T21:01:37.803Z,76.27
2019-02-20T21:04:23.184Z,78.93
2019-02-20T21:07:31.703Z,73.23
2019-02-20T21:10:11.323Z,71.43
2019-02-20T21:13:04.673Z,77.60
2019-02-20T21:15:56.603Z,66.17
2019-02-20T21:18:53.399Z,64.83
2019-02-20T21:21:51.191Z,67.90
2019-02-20T21:25:00.976Z,65.43
2019-02-20T21:27:53.159Z,64.30
2019-02-20T21:30:57.431Z,70.47
2019-02-20T21:33:53.407Z,64.50
2019-02-20T21:36:42.186Z,64.60
2019-02-20T21:39:30.766Z,61.73
2019-02-20T21:45:23.652Z,64.33
2019-02-20T21:48:15.598Z,59.97
2019-02-20T21:51:04.397Z,60.97
2019-02-20T21:53:44.258Z,64.13
2019-02-20T21:56:29.944Z,63.03
2019-02-20T21:59:23.604Z,61.23
2019-02-20T22:02:03.174Z,64.57
2019-02-20T22:04:42.618Z,59.87
2019-02-20T22:07:39.645Z,62.67
2019-02-20T22:10:46.643Z,58.10
2019-02-20T22:13:42.635Z,54.27
2019-02-20T22:16:44.918Z,51.90
2019-02-20T22:19:40.020Z,62.23
2019-02-20T22:22:19.713Z,46.93
2019-02-20T22:25:16.066Z,53.40
2019-02-20T22:27:55.373Z,47.53
2019-02-20T22:30:54.915Z,44.70
2019-02-20T22:33:31.602Z,46.03
2019-02-20T22:36:37.582Z,41.27
2019-02-20T22:39:37.029Z,41.17
2019-02-20T22:42:34.894Z,43.23
2019-02-20T22:45:33.546Z,38.90
2019-02-20T22:48:27.358Z,36.23
2019-02-20T22:51:16.236Z,38.53
2019-02-20T22:54:04.697Z,34.70
2019-02-20T22:56:50.393Z,33.23
2019-02-20T22:59:30.030Z,32.53
2019-02-20T23:02:27.959Z,33.73
2019-02-20T23:05:33.326Z,30.73
2019-02-20T23:08:33.638Z,32.83
2019-02-20T23:11:32.775Z,27.30
2019-02-20T23:14:35.246Z,31.17
2019-02-20T23:17:09.050Z,31.30
2019-02-20T23:19:48.647Z,30.73
2019-02-20T23:22:22.382Z,31.23
2019-02-20T23:24:56.464Z,26.60
2019-02-20T23:27:30.095Z,27.87
2019-02-20T23:30:12.541Z,29.60
2019-02-20T23:33:01.647Z,25.70
2019-02-20T23:35:35.326Z,32.57
2019-02-20T23:38:13.143Z,25.30
2019-02-20T23:40:46.805Z,27.13
2019-02-20T23:43:20.561Z,23.47
2019-02-20T23:46:03.397Z,27.17
2019-02-20T23:48:37.006Z,24.13
2019-02-20T23:51:10.638Z,28.83
2019-02-20T23:53:47.521Z,25.13
2019-02-20T23:56:21.174Z,28.23
2019-02-20T23:58:54.825Z,26.33
